x

Neah Bay, - 6nm North Of Cape Flattery, Wa (traffic Separation Lighted Buoy) (46087) Wave Buoy

9:50 - Mon 2nd May 2016 All times are PDT. -7 hours from GMT.

  • Sig Wave height 7.2ft
  • Swell Direction
  • Peak Period 13s
  • Average Period 8s
  • Wind
    7mph, 9mph gusts
  • Sea Temp 53°f
  • Air Temp 55°f
  • Sea Pressure 1014.8mb
  • Neah Bay, - 6nm North Of Cape Flattery, Wa     (traffic Separation Lighted Buoy)
  • Neah Bay, - 6nm North Of Cape Flattery, Wa     (traffic Separation Lighted Buoy)

More Historic Weather Station data

Upgrade to MSW Pro to gain access to the past 30 days of data for over 8000 Wavebouys and Weather Stations around the globe.

Join Pro

Comparision Forecast

View Surf forecast
   
lun. 05/02 9:50 7ft 13s 8s 7 9 mph 1014.8mb 53f 55f
9:20 6.5ft 14s 8s 7 11 mph 1014.5mb 53f 56f
8:50 7ft 13s 9s 13 18 mph 1014.3mb 53f 56f
8:20 7ft 11s 9s 9 11 mph 1014mb 53f 56f
7:50 6.5ft 14s 9s 13 16 mph 1013.8mb 53f 58f
7:20 6.5ft 10s 9s 9 13 mph 1013.8mb 54f 58f
6:50 7ft 12s 9s 9 11 mph 1013.6mb 55f 59f
6:20 6.5ft 13s 9s 7 9 mph 1013.6mb 55f 61f
5:50 6.5ft 13s 9s 4 7 mph 1013.8mb 55f 59f
5:20 6.5ft 14s 10s 4 9 mph 1013.7mb 55f 62f
4:50 7.5ft 13s 10s 7 13 mph 1013.4mb 55f 59f
4:20 6.5ft 11s 10s 4 9 mph 1013.5mb 55f 62f
3:50 7ft 12s 10s 2 7 mph 1013.5mb 54f 63f
3:20 8ft 13s 10s 9 11 mph 1013.4mb 54f 61f
2:50 9ft 12s 10s 9 13 mph 1013.5mb 54f 60f
2:20 8.5ft 13s 11s 11 13 mph 1013.6mb 54f 59f
1:50 8ft 13s 10s 11 16 mph 1013.7mb 54f 59f
1:20 8.5ft 14s 10s 9 13 mph 1013.7mb 53f 57f
12:50 8.5ft 11s 10s 13 18 mph 1013.6mb 53f 58f
12:20 9ft 11s 10s 18 22 mph 1013.5mb 53f 58f
11:50 8ft 11s 9s 18 22 mph 1013.4mb 53f 58f
11:20 8ft 13s 9s 20 27 mph 1013.2mb 53f 59f
10:50 8.5ft 13s 10s 20 25 mph 1013.3mb 53f 59f
10:20 9ft 12s 10s 18 25 mph 1013.3mb 53f 57f
9:50 8.5ft 12s 10s 18 22 mph 1013.3mb 53f 57f
9:20 8ft 12s 10s 18 22 mph 1013.3mb 53f 56f
8:50 7.5ft 13s 10s 18 22 mph 1013.3mb 52f 56f
8:20 7.5ft 14s 10s 18 22 mph 1013.1mb 53f 56f
7:50 7.5ft 13s 10s 20 25 mph 1013mb 53f 56f
7:20 8ft 12s 10s 18 25 mph 1013mb 52f 57f
6:50 8ft 14s 10s 18 20 mph 1012.7mb 52f 56f
6:20 7ft 14s 10s 18 20 mph 1012.7mb 52f 56f
5:50 6ft 12s 10s 16 20 mph 1012.8mb 52f 56f
5:20 7ft 15s 10s 18 20 mph 1012.8mb 52f 56f
4:50 6ft 12s 9s 16 20 mph 1012.8mb 52f 56f
4:20 6ft 15s 10s 16 20 mph 1012.8mb 53f 56f
3:50 6ft 13s 9s 18 20 mph 1012.8mb 53f 56f
3:20 5.5ft 12s 9s 16 20 mph 1012.9mb 53f 56f
2:50 6ft 12s 9s 16 18 mph 1012.8mb 53f 55f
2:20 5.5ft 14s 9s 16 20 mph 1012.8mb 53f 56f
1:50 5ft 12s 8s 16 18 mph 1012.9mb 53f 55f
1:20 6ft 12s 9s 13 16 mph 1012.9mb 53f 56f
12:50 5.5ft 12s 9s 11 13 mph 1013mb 53f 56f
12:20 6ft 13s 9s 7 9 mph 1013.1mb 53f 56f
dim. 05/01 11:50 5.5ft 11s 9s 4 7 mph 1013.2mb 53f 55f
11:20 6ft 13s 8s 4 7 mph 1013.3mb 53f 55f
10:50 6ft 11s 8s 9 11 mph 1013.4mb 53f 59f
10:20 6ft 11s 8s 9
mph
1013.4mb 53f 58f
9:50 6ft 11s 8s 9 11 mph 1013.4mb 53f 58f
9:20 5.5ft 12s 8s 9 11 mph 1013.4mb 53f 58f
8:50 6ft 11s 8s 11 13 mph 1013.2mb 53f 56f
8:20 5.5ft 11s 8s 13 18 mph 1013mb 53f 59f
7:50 6ft 11s 8s 16 18 mph 1012.9mb 54f 59f
7:20 6.5ft 11s 9s 13 16 mph 1013.5mb 54f 58f
6:50 6ft 12s 8s 9 11 mph 1013.9mb 53f 57f
6:20 5.5ft 12s 8s 9 11 mph 1014.4mb 53f 57f
5:50 5.5ft 11s 8s 11 16 mph 1014.7mb 53f 58f
5:20 5ft 12s 8s 11 16 mph 1015.1mb 54f 56f
4:50 5.5ft 13s 8s 9 11 mph 1015.7mb 53f 56f
4:20 5.5ft 12s 8s 13 16 mph 1016.1mb 53f 57f
3:50 6ft 12s 8s 16 18 mph 1016.6mb 53f 56f
3:20 5.5ft 12s 8s 16 20 mph 1016.8mb 53f 57f
2:50 6ft 13s 8s 13 18 mph 1017.3mb 52f 56f
2:20 5.5ft 9s 7s 18 20 mph 1017.6mb 52f 55f
1:50 5ft 13s 8s 18 22 mph 1017.9mb 52f 55f
1:20 5.5ft 13s 8s 18 20 mph 1018.3mb 52f 55f
12:50 5ft 13s 8s 20 22 mph 1018.6mb 52f 54f
12:20 6ft 13s 8s 20 25 mph 1019mb 52f 54f
11:50 5.5ft 11s 8s 20 22 mph 1019.6mb 52f 54f
11:20 5ft 10s 7s 18 22 mph 1020mb 52f 53f
10:50 5ft 9s 7s 18 20 mph 1020.4mb 52f 53f
10:20 5.5ft 12s 8s 18 20 mph 1020.7mb 52f 53f
9:50 5.5ft 10s 8s 16 18 mph 1021.2mb 52f 52f
9:20 5.5ft 10s 8s 16 18 mph 1021.6mb 52f 51f
8:50 5.5ft 10s 8s 13 16 mph 1021.9mb 52f 51f
8:20 5ft 11s 8s 13 18 mph 1022.3mb 52f 51f
7:50 6ft 12s 9s 13 16 mph 1022.5mb 52f 52f
7:20 6ft 11s 9s 11
mph
1023mb 52f 51f
6:50 5ft 13s 8s 9 11 mph 1023mb 52f 51f
6:20 5.5ft 14s 8s 11 16 mph 1023mb 52f 51f
5:50 5ft 14s 8s 7 11 mph 1023.2mb 52f 51f
5:20 6ft 11s 9s 11 13 mph 1023.5mb 52f 51f
4:50 6.5ft 13s 9s 11 13 mph 1023.7mb 52f 51f
4:20 5.5ft 13s 9s 11 16 mph 1023.7mb 52f 52f
3:50 5ft 13s 8s 11 13 mph 1024.1mb 52f 51f
3:20 5ft 12s 8s 11 13 mph 1024.3mb 52f 51f
2:50 5.5ft 12s 8s 11 16 mph 1024.4mb 53f 51f
2:20 5ft 12s 8s 11 16 mph 1024.8mb 53f 52f
1:50 5.5ft 13s 8s 11 13 mph 1025mb 53f 52f
1:20 5ft 13s 7s 7 9 mph 1025.3mb 54f 53f
12:50 5ft 11s 7s 4 7 mph 1025.6mb 54f 53f
12:20 5ft 13s 7s 2 4 mph 1025.8mb 54f 53f
sam. 04/30 11:50 5ft 13s 7s 2
mph
1025.9mb 54f 53f
11:20 5ft 10s 7s 2
mph
1026.2mb 53f 53f
10:50 5.5ft 10s 6s 9 13 mph 1026.3mb 53f 53f
10:20 5.5ft 11s 7s 11 13 mph 1026.4mb 53f 53f
9:50 5ft 11s 6s 9 13 mph 1026.8mb 53f 53f
9:20 5ft 9s 6s 11 16 mph 1026.6mb 53f 53f
8:50 5ft 10s 6s 9 11 mph 1026.7mb 54f 53f
8:20 5ft 9s 6s 13 16 mph 1026.7mb 54f 53f
7:50 5.5ft 10s 7s 16 20 mph 1026.8mb 55f 53f
7:20 5.5ft 10s 7s 16 18 mph 1026.8mb 54f 53f
6:50 5ft 9s 7s 11 13 mph 1027.1mb 54f 54f
6:20 5ft 10s 7s 9 11 mph 1027.5mb 54f 54f
5:50 5ft 10s 7s 11 13 mph 1027.7mb 54f 54f
5:20 5.5ft 10s 7s 13 16 mph 1027.7mb 54f 54f
4:50 5ft 10s 7s 13
mph
1027.8mb 54f 53f
3:50 5ft 10s 7s 9 11 mph 1028mb 55f 53f
3:20 5.5ft 10s 7s 4 7 mph 1028.1mb 55f 53f
2:50 5ft 10s 7s  -  2 mph 1028.2mb 55f 53f
2:20 5.5ft 10s 7s 4
mph
1028.6mb 55f 52f
1:50 6ft 10s 7s 7 9 mph 1029mb 54f 52f
1:20 5.5ft 10s 7s 4 7 mph 1028.9mb 54f 52f
12:50 5.5ft 10s 7s 7 9 mph 1029mb 54f 53f
12:20 6ft 11s 7s 2 4 mph 1029mb 54f 53f
11:50 6ft 10s 7s 2 4 mph 1029mb 54f 52f
11:20 6ft 11s 7s 2 4 mph 1029mb 53f 52f
10:50 6ft 8s 7s 4 7 mph 1028.7mb 53f 52f
10:20 6ft 10s 7s 7 9 mph 1028.5mb 53f 51f
9:50 6ft 8s 7s 9 11 mph 1028.5mb 53f 51f
9:20 7ft 9s 7s 13 16 mph 1028.1mb 53f 51f
8:50 7ft 10s 7s 11 13 mph 1028mb 53f 51f
8:20 7ft 8s 7s 13 16 mph 1027.5mb 53f 50f
7:50 7ft 11s 7s 13 16 mph 1027.3mb 53f 49f
7:20 7ft 9s 7s 13 16 mph 1027.2mb 53f 50f
6:20 7ft 8s 7s 13 16 mph 1026.6mb 53f 50f
5:50 7ft 10s 7s 13 16 mph 1026.3mb 53f 51f
5:20 7.5ft 9s 7s 11 13 mph 1026.1mb 52f 51f
4:50 8ft 8s 8s 11 13 mph 1025.9mb 52f 51f
4:20 8ft 10s 8s 11 13 mph 1025.7mb 52f 51f
3:50 9ft 8s 8s 11 13 mph 1025.6mb 51f 51f
3:20 9ft 8s 8s 7 13 mph 1025.5mb 51f 52f
2:50 7.5ft 11s 7s 7 11 mph 1025.5mb 51f 52f
2:20 8ft 9s 8s 9 11 mph 1025.1mb 51f 52f
1:50 8ft 11s 8s 9 11 mph 1024.7mb 51f 52f
1:20 8ft 10s 7s 9 13 mph 1024.4mb 51f 52f
12:50 8ft 9s 7s 9 11 mph 1024.2mb 51f 51f
12:20 8ft 9s 7s 7 9 mph 1023.9mb 51f 51f
ven. 04/29 11:50 9ft 9s 7s 4 9 mph 1023.8mb 51f 51f
11:20 8ft 8s 7s 4 7 mph 1023.5mb 51f 52f
10:50 8ft 9s 7s 9 13 mph 1023.5mb 51f 52f
10:20 8ft 8s 7s 11 16 mph 1023.3mb 51f 52f
9:50 8ft 9s 7s 11 16 mph 1023mb 51f 52f
9:20 8ft 8s 7s 11 16 mph 1022.8mb 51f 52f
8:50 8.5ft 8s 7s 11 13 mph 1022.4mb 51f 53f
8:20 8.5ft 8s 7s 13 18 mph 1022.1mb 51f 53f
7:50 8ft 8s 7s 13 16 mph 1022mb 51f 53f
7:20 8ft 11s 7s 13 18 mph 1022mb 51f 53f
6:50 8ft 8s 7s 16 18 mph 1021.9mb 51f 53f
6:20 8ft 8s 7s 13 18 mph 1021.9mb 51f 53f
5:50 8ft 11s 7s 16 18 mph 1021.6mb 51f 53f
5:20 8.5ft 11s 7s 16 18 mph 1021.4mb 52f 52f
4:50 7.5ft 8s 7s 16 20 mph 1021.4mb 52f 53f
4:20 7ft 11s  -  16 20 mph 1021.3mb 52f 52f
3:50 6ft 12s 7s 16 18 mph 1021.2mb 51f 52f
3:20 6ft 11s 7s 13 18 mph 1021.2mb 52f 52f
2:50 6ft 12s 8s 13 16 mph 1021.3mb 52f 52f
2:20 6ft 11s 8s 16 20 mph 1021.1mb 52f 52f
1:50 6ft 13s 8s 16 18 mph 1020.9mb 52f 52f
1:20 7ft 13s 8s 16 18 mph 1020.5mb 52f 52f
12:50 6ft 11s 8s 16 20 mph 1020.3mb 52f 51f
12:20 6.5ft 13s 8s 16 18 mph 1020.3mb 52f 52f
11:50 6ft 11s 8s 13 16 mph 1020.5mb 52f 51f
11:20 6.5ft 12s 8s 13 16 mph 1020.5mb 51f 51f
10:50 6.5ft 13s 9s 13 16 mph 1020.4mb 51f 51f
10:20 7.5ft 11s 9s 11 16 mph 1020.2mb 51f 51f
9:50 7ft 12s 9s 7 9 mph 1020mb 51f 51f
9:20 7ft 13s 9s 7 9 mph 1020mb 51f 50f
8:50 7ft 13s 9s 9 11 mph 1019.9mb 51f 50f
8:20 7ft 11s 9s 7 9 mph 1019.6mb 51f 50f
7:50 6.5ft 13s 9s 9 11 mph 1019.3mb 51f 50f
7:20 6ft 13s 9s 7
mph
1019.2mb 51f 50f
6:50 7ft 12s 9s 7
mph
1019mb 51f 50f
6:20 6.5ft 11s 9s 7
mph
1019.1mb 51f 50f
5:50 7ft 12s 9s 7 9 mph 1019mb 51f 50f